sensor_id;sensor_type;location;lat;lon;timestamp;pressure;altitude;pressure_sealevel;temperature;humidity
75359;BME280;64046;51.978;5.934;2023-05-10T00:02:23;100716.28;;;18.73;100.00
75359;BME280;64046;51.978;5.934;2023-05-10T00:08:18;100715.44;;;18.73;100.00
75359;BME280;64046;51.978;5.934;2023-05-10T00:14:28;100711.47;;;18.78;100.00
75359;BME280;64046;51.978;5.934;2023-05-10T00:16:58;100721.13;;;18.57;100.00
75359;BME280;64046;51.978;5.934;2023-05-10T00:19:37;100713.63;;;18.73;100.00
75359;BME280;64046;51.978;5.934;2023-05-10T00:22:19;100710.84;;;18.75;100.00
75359;BME280;64046;51.978;5.934;2023-05-10T00:24:53;100708.56;;;18.70;100.00
75359;BME280;64046;51.978;5.934;2023-05-10T00:27:26;100712.66;;;18.74;100.00
75359;BME280;64046;51.978;5.934;2023-05-10T00:33:13;100709.78;;;18.89;100.00
75359;BME280;64046;51.978;5.934;2023-05-10T00:35:57;100701.94;;;18.87;100.00
75359;BME280;64046;51.978;5.934;2023-05-10T00:38:28;100710.72;;;18.76;100.00
75359;BME280;64046;51.978;5.934;2023-05-10T00:41:02;100703.00;;;18.73;100.00
75359;BME280;64046;51.978;5.934;2023-05-10T00:43:36;100710.75;;;18.65;100.00
75359;BME280;64046;51.978;5.934;2023-05-10T00:49:42;100709.78;;;18.89;100.00
75359;BME280;64046;51.978;5.934;2023-05-10T00:52:25;100704.59;;;18.87;100.00
75359;BME280;64046;51.978;5.934;2023-05-10T00:55:01;100702.63;;;18.89;100.00
75359;BME280;64046;51.978;5.934;2023-05-10T00:57:34;100699.72;;;18.81;100.00
75359;BME280;64046;51.978;5.934;2023-05-10T01:00:06;100705.16;;;18.79;100.00
75359;BME280;64046;51.978;5.934;2023-05-10T01:02:38;100699.72;;;18.81;100.00
75359;BME280;64046;51.978;5.934;2023-05-10T01:05:13;100695.16;;;18.83;100.00
75359;BME280;64046;51.978;5.934;2023-05-10T01:07:52;100696.63;;;18.87;100.00
75359;BME280;64046;51.978;5.934;2023-05-10T01:10:25;100696.13;;;18.71;100.00
75359;BME280;64046;51.978;5.934;2023-05-10T01:13:07;100695.03;;;18.96;100.00
75359;BME280;64046;51.978;5.934;2023-05-10T01:15:49;100692.25;;;18.97;100.00
75359;BME280;64046;51.978;5.934;2023-05-10T01:18:23;100699.16;;;18.89;100.00
75359;BME280;64046;51.978;5.934;2023-05-10T01:21:14;100697.94;;;18.93;100.00
75359;BME280;64046;51.978;5.934;2023-05-10T01:24:19;100696.81;;;18.95;100.00
75359;BME280;64046;51.978;5.934;2023-05-10T01:30:16;100699.03;;;18.90;100.00
75359;BME280;64046;51.978;5.934;2023-05-10T01:33:00;100694.56;;;18.91;100.00
75359;BME280;64046;51.978;5.934;2023-05-10T01:35:39;100698.91;;;18.92;100.00
75359;BME280;64046;51.978;5.934;2023-05-10T01:38:22;100702.50;;;18.91;100.00
75359;BME280;64046;51.978;5.934;2023-05-10T01:41:16;100712.03;;;18.93;100.00
75359;BME280;64046;51.978;5.934;2023-05-10T01:44:01;100706.25;;;18.88;100.00
75359;BME280;64046;51.978;5.934;2023-05-10T01:46:38;100704.47;;;18.77;100.00
75359;BME280;64046;51.978;5.934;2023-05-10T01:49:22;100698.41;;;18.87;100.00
75359;BME280;64046;51.978;5.934;2023-05-10T01:52:15;100700.00;;;18.89;100.00
75359;BME280;64046;51.978;5.934;2023-05-10T01:54:53;100697.81;;;18.83;100.00
75359;BME280;64046;51.978;5.934;2023-05-10T01:57:36;100703.72;;;18.87;100.00
75359;BME280;64046;51.978;5.934;2023-05-10T02:00:12;100711.78;;;18.85;100.00
75359;BME280;64046;51.978;5.934;2023-05-10T02:02:48;100703.00;;;18.84;100.00
75359;BME280;64046;51.978;5.934;2023-05-10T02:05:33;100701.81;;;18.89;100.00
75359;BME280;64046;51.978;5.934;2023-05-10T02:08:09;100706.38;;;18.87;100.00
75359;BME280;64046;51.978;5.934;2023-05-10T02:13:52;100700.59;;;18.81;100.00
75359;BME280;64046;51.978;5.934;2023-05-10T02:16:41;100709.25;;;18.83;100.00
75359;BME280;64046;51.978;5.934;2023-05-10T02:19:28;100707.69;;;18.81;100.00
75359;BME280;64046;51.978;5.934;2023-05-10T02:22:09;100707.56;;;18.82;100.00
75359;BME280;64046;51.978;5.934;2023-05-10T02:24:43;100708.81;;;18.78;100.00
75359;BME280;64046;51.978;5.934;2023-05-10T02:27:17;100708.81;;;18.78;100.00
75359;BME280;64046;51.978;5.934;2023-05-10T02:29:51;100712.53;;;18.76;100.00
75359;BME280;64046;51.978;5.934;2023-05-10T02:32:28;100713.38;;;18.76;100.00
75359;BME280;64046;51.978;5.934;2023-05-10T02:35:01;100721.47;;;18.75;100.00
75359;BME280;64046;51.978;5.934;2023-05-10T02:37:38;100724.59;;;18.80;100.00
75359;BME280;64046;51.978;5.934;2023-05-10T02:40:13;100732.34;;;18.72;100.00
75359;BME280;64046;51.978;5.934;2023-05-10T02:42:50;100730.03;;;18.78;100.00
75359;BME280;64046;51.978;5.934;2023-05-10T02:45:25;100727.88;;;18.72;100.00
75359;BME280;64046;51.978;5.934;2023-05-10T02:47:58;100735.00;;;18.72;100.00
75359;BME280;64046;51.978;5.934;2023-05-10T02:50:32;100735.13;;;18.70;100.00
75359;BME280;64046;51.978;5.934;2023-05-10T02:53:27;100724.13;;;18.75;100.00
75359;BME280;64046;51.978;5.934;2023-05-10T02:56:07;100736.06;;;18.69;100.00
75359;BME280;64046;51.978;5.934;2023-05-10T02:58:44;100735.50;;;18.65;100.00
75359;BME280;64046;51.978;5.934;2023-05-10T03:01:24;100735.50;;;18.65;100.00
75359;BME280;64046;51.978;5.934;2023-05-10T03:03:57;100732.34;;;18.60;100.00
75359;BME280;64046;51.978;5.934;2023-05-10T03:06:28;100737.91;;;18.57;100.00
75359;BME280;64046;51.978;5.934;2023-05-10T03:09:04;100735.50;;;18.65;100.00
75359;BME280;64046;51.978;5.934;2023-05-10T03:11:52;100738.84;;;18.67;100.00
75359;BME280;64046;51.978;5.934;2023-05-10T03:14:39;100738.59;;;18.71;100.00
75359;BME280;64046;51.978;5.934;2023-05-10T03:17:29;100738.38;;;18.62;100.00
75359;BME280;64046;51.978;5.934;2023-05-10T03:20:15;100738.03;;;18.56;100.00
75359;BME280;64046;51.978;5.934;2023-05-10T03:22:57;100738.63;;;18.48;100.00
75359;BME280;64046;51.978;5.934;2023-05-10T03:25:40;100745.25;;;18.54;100.00
75359;BME280;64046;51.978;5.934;2023-05-10T03:28:25;100742.97;;;18.60;100.00
75359;BME280;64046;51.978;5.934;2023-05-10T03:31:05;100745.88;;;18.57;100.00
75359;BME280;64046;51.978;5.934;2023-05-10T03:33:45;100749.34;;;18.58;100.00
75359;BME280;64046;51.978;5.934;2023-05-10T03:36:29;100754.91;;;18.55;100.00
75359;BME280;64046;51.978;5.934;2023-05-10T03:39:02;100749.00;;;18.40;100.00
75359;BME280;64046;51.978;5.934;2023-05-10T03:41:37;100751.19;;;18.46;100.00
75359;BME280;64046;51.978;5.934;2023-05-10T03:44:15;100757.19;;;18.48;100.00
75359;BME280;64046;51.978;5.934;2023-05-10T03:46:52;100750.44;;;18.44;100.00
75359;BME280;64046;51.978;5.934;2023-05-10T03:49:45;100757.44;;;18.56;100.00
75359;BME280;64046;51.978;5.934;2023-05-10T03:52:19;100755.75;;;18.44;100.00
75359;BME280;64046;51.978;5.934;2023-05-10T03:54:57;100762.63;;;18.46;100.00
75359;BME280;64046;51.978;5.934;2023-05-10T03:57:55;100770.94;;;18.42;100.00
75359;BME280;64046;51.978;5.934;2023-05-10T04:00:28;100771.91;;;18.41;100.00
75359;BME280;64046;51.978;5.934;2023-05-10T04:06:00;100779.16;;;18.39;100.00
75359;BME280;64046;51.978;5.934;2023-05-10T04:08:38;100777.47;;;18.38;100.00
75359;BME280;64046;51.978;5.934;2023-05-10T04:11:11;100771.69;;;18.32;100.00
75359;BME280;64046;51.978;5.934;2023-05-10T04:14:06;100778.53;;;18.35;100.00
75359;BME280;64046;51.978;5.934;2023-05-10T04:16:54;100783.13;;;18.44;100.00
75359;BME280;64046;51.978;5.934;2023-05-10T04:19:29;100783.50;;;18.28;100.00
75359;BME280;64046;51.978;5.934;2023-05-10T04:22:17;100777.22;;;18.41;100.00
75359;BME280;64046;51.978;5.934;2023-05-10T04:24:48;100780.19;;;18.13;100.00
75359;BME280;64046;51.978;5.934;2023-05-10T04:27:23;100775.66;;;18.27;100.00
75359;BME280;64046;51.978;5.934;2023-05-10T04:29:56;100782.28;;;18.21;100.00
75359;BME280;64046;51.978;5.934;2023-05-10T04:32:27;100780.31;;;18.12;100.00
75359;BME280;64046;51.978;5.934;2023-05-10T04:35:00;100788.28;;;18.23;100.00
75359;BME280;64046;51.978;5.934;2023-05-10T04:37:34;100792.25;;;18.18;100.00
75359;BME280;64046;51.978;5.934;2023-05-10T04:40:05;100782.50;;;18.07;100.00
75359;BME280;64046;51.978;5.934;2023-05-10T04:42:51;100784.06;;;18.21;100.00
75359;BME280;64046;51.978;5.934;2023-05-10T04:45:25;100782.59;;;18.16;100.00
75359;BME280;64046;51.978;5.934;2023-05-10T04:48:01;100788.50;;;18.09;100.00
75359;BME280;64046;51.978;5.934;2023-05-10T04:50:43;100787.91;;;18.16;100.00
75359;BME280;64046;51.978;5.934;2023-05-10T04:53:13;100788.59;;;17.96;100.00
75359;BME280;64046;51.978;5.934;2023-05-10T04:55:44;100787.81;;;18.07;100.00
75359;BME280;64046;51.978;5.934;2023-05-10T04:58:18;100792.00;;;18.09;100.00
75359;BME280;64046;51.978;5.934;2023-05-10T05:01:07;100790.00;;;18.24;100.00
75359;BME280;64046;51.978;5.934;2023-05-10T05:03:38;100790.53;;;18.05;100.00
75359;BME280;64046;51.978;5.934;2023-05-10T05:06:22;100791.56;;;18.27;100.00
75359;BME280;64046;51.978;5.934;2023-05-10T05:08:55;100792.16;;;18.19;100.00
75359;BME280;64046;51.978;5.934;2023-05-10T05:11:29;100791.78;;;18.12;100.00
75359;BME280;64046;51.978;5.934;2023-05-10T05:13:59;100792.03;;;18.21;100.00
75359;BME280;64046;51.978;5.934;2023-05-10T05:16:33;100801.81;;;18.31;100.00
75359;BME280;64046;51.978;5.934;2023-05-10T05:19:05;100806.16;;;18.21;100.00
75359;BME280;64046;51.978;5.934;2023-05-10T05:21:44;100807.47;;;18.38;100.00
75359;BME280;64046;51.978;5.934;2023-05-10T05:24:13;100805.78;;;18.26;100.00
75359;BME280;64046;51.978;5.934;2023-05-10T05:26:45;100805.19;;;18.33;100.00
75359;BME280;64046;51.978;5.934;2023-05-10T05:29:27;100803.03;;;18.50;100.00
75359;BME280;64046;51.978;5.934;2023-05-10T05:32:08;100807.72;;;18.46;100.00
75359;BME280;64046;51.978;5.934;2023-05-10T05:34:38;100806.25;;;18.31;100.00
75359;BME280;64046;51.978;5.934;2023-05-10T05:37:14;100813.91;;;18.47;100.00
75359;BME280;64046;51.978;5.934;2023-05-10T05:39:52;100808.94;;;18.54;100.00
75359;BME280;64046;51.978;5.934;2023-05-10T05:42:25;100811.84;;;18.50;100.00
75359;BME280;64046;51.978;5.934;2023-05-10T05:44:55;100815.22;;;18.41;100.00
75359;BME280;64046;51.978;5.934;2023-05-10T05:47:29;100811.00;;;18.61;100.00
75359;BME280;64046;51.978;5.934;2023-05-10T05:50:03;100809.91;;;18.64;100.00
75359;BME280;64046;51.978;5.934;2023-05-10T05:52:43;100810.16;;;18.72;100.00
75359;BME280;64046;51.978;5.934;2023-05-10T05:55:29;100812.69;;;18.74;100.00
75359;BME280;64046;51.978;5.934;2023-05-10T05:58:04;100809.44;;;18.81;100.00
75359;BME280;64046;51.978;5.934;2023-05-10T06:00:37;100818.00;;;18.85;100.00
75359;BME280;64046;51.978;5.934;2023-05-10T06:03:22;100821.50;;;18.85;100.00
75359;BME280;64046;51.978;5.934;2023-05-10T06:05:53;100818.25;;;18.71;100.00
75359;BME280;64046;51.978;5.934;2023-05-10T06:08:24;100822.47;;;18.62;100.00
75359;BME280;64046;51.978;5.934;2023-05-10T06:11:13;100832.88;;;18.88;100.00
75359;BME280;64046;51.978;5.934;2023-05-10T06:14:16;100826.72;;;18.87;100.00
75359;BME280;64046;51.978;5.934;2023-05-10T06:16:51;100820.63;;;18.51;100.00
75359;BME280;64046;51.978;5.934;2023-05-10T06:19:29;100822.22;;;18.65;100.00
75359;BME280;64046;51.978;5.934;2023-05-10T06:22:08;100827.88;;;18.49;100.00
75359;BME280;64046;51.978;5.934;2023-05-10T06:24:43;100827.53;;;18.65;100.00
75359;BME280;64046;51.978;5.934;2023-05-10T06:27:14;100834.75;;;18.52;100.00
75359;BME280;64046;51.978;5.934;2023-05-10T06:29:45;100837.53;;;18.39;100.00
75359;BME280;64046;51.978;5.934;2023-05-10T06:32:18;100839.31;;;18.38;100.00
75359;BME280;64046;51.978;5.934;2023-05-10T06:34:50;100846.97;;;18.54;100.00
75359;BME280;64046;51.978;5.934;2023-05-10T06:37:24;100847.78;;;18.55;100.00
75359;BME280;64046;51.978;5.934;2023-05-10T06:40:11;100848.03;;;18.63;100.00
75359;BME280;64046;51.978;5.934;2023-05-10T06:42:45;100847.66;;;18.56;100.00
75359;BME280;64046;51.978;5.934;2023-05-10T06:45:23;100852.97;;;18.56;100.00
75359;BME280;64046;51.978;5.934;2023-05-10T06:48:10;100856.59;;;18.66;100.00
75359;BME280;64046;51.978;5.934;2023-05-10T06:51:13;100860.22;;;18.54;100.00
75359;BME280;64046;51.978;5.934;2023-05-10T06:53:52;100861.31;;;18.63;100.00
75359;BME280;64046;51.978;5.934;2023-05-10T06:56:28;100863.81;;;18.42;100.00
75359;BME280;64046;51.978;5.934;2023-05-10T06:59:00;100856.56;;;18.32;100.00
75359;BME280;64046;51.978;5.934;2023-05-10T07:01:31;100871.38;;;18.35;100.00
75359;BME280;64046;51.978;5.934;2023-05-10T07:04:08;100861.31;;;18.52;100.00
75359;BME280;64046;51.978;5.934;2023-05-10T07:06:45;100867.94;;;18.46;100.00
75359;BME280;64046;51.978;5.934;2023-05-10T07:09:33;100874.72;;;18.61;100.00
75359;BME280;64046;51.978;5.934;2023-05-10T07:12:07;100868.16;;;18.43;100.00
75359;BME280;64046;51.978;5.934;2023-05-10T07:14:37;100878.06;;;18.52;100.00
75359;BME280;64046;51.978;5.934;2023-05-10T07:17:17;100881.38;;;18.78;100.00
75359;BME280;64046;51.978;5.934;2023-05-10T07:19:53;100877.25;;;18.74;100.00
75359;BME280;64046;51.978;5.934;2023-05-10T07:22:28;100882.69;;;18.73;100.00
75359;BME280;64046;51.978;5.934;2023-05-10T07:25:02;100885.19;;;18.63;100.00
75359;BME280;64046;51.978;5.934;2023-05-10T07:27:36;100886.44;;;18.81;100.00
75359;BME280;64046;51.978;5.934;2023-05-10T07:30:08;100890.88;;;18.81;100.00
75359;BME280;64046;51.978;5.934;2023-05-10T07:32:42;100888.72;;;18.75;100.00
75359;BME280;64046;51.978;5.934;2023-05-10T07:35:15;100887.88;;;18.85;100.00
75359;BME280;64046;51.978;5.934;2023-05-10T07:37:47;100895.09;;;18.83;100.00
75359;BME280;64046;51.978;5.934;2023-05-10T07:40:18;100892.56;;;18.71;100.00
75359;BME280;64046;51.978;5.934;2023-05-10T07:42:51;100898.50;;;18.74;100.00
75359;BME280;64046;51.978;5.934;2023-05-10T07:45:21;100899.19;;;18.76;100.00
75359;BME280;64046;51.978;5.934;2023-05-10T07:47:52;100904.81;;;18.96;100.00
75359;BME280;64046;51.978;5.934;2023-05-10T07:50:25;100906.72;;;19.05;100.00
75359;BME280;64046;51.978;5.934;2023-05-10T07:53:00;100901.41;;;19.05;100.00
75359;BME280;64046;51.978;5.934;2023-05-10T07:55:30;100905.16;;;18.91;100.00
75359;BME280;64046;51.978;5.934;2023-05-10T07:58:09;100901.06;;;18.98;100.00
75359;BME280;64046;51.978;5.934;2023-05-10T08:00:40;100902.00;;;18.86;100.00
75359;BME280;64046;51.978;5.934;2023-05-10T08:03:14;100914.44;;;18.85;100.00
75359;BME280;64046;51.978;5.934;2023-05-10T08:05:45;100916.22;;;18.85;100.00
75359;BME280;64046;51.978;5.934;2023-05-10T08:08:19;100913.25;;;19.01;100.00
75359;BME280;64046;51.978;5.934;2023-05-10T08:10:50;100922.31;;;18.98;100.00
75359;BME280;64046;51.978;5.934;2023-05-10T08:13:23;100921.94;;;19.14;100.00
75359;BME280;64046;51.978;5.934;2023-05-10T08:15:53;100921.84;;;19.16;100.00
75359;BME280;64046;51.978;5.934;2023-05-10T08:18:27;100921.81;;;19.27;100.00
75359;BME280;64046;51.978;5.934;2023-05-10T08:21:06;100920.22;;;19.59;100.00
75359;BME280;64046;51.978;5.934;2023-05-10T08:23:40;100918.88;;;19.64;100.00
75359;BME280;64046;51.978;5.934;2023-05-10T08:26:10;100920.66;;;19.64;100.00
75359;BME280;64046;51.978;5.934;2023-05-10T08:28:40;100928.28;;;19.57;100.00
75359;BME280;64046;51.978;5.934;2023-05-10T08:31:12;100929.84;;;19.60;100.00
75359;BME280;64046;51.978;5.934;2023-05-10T08:33:44;100926.63;;;19.56;100.00
75359;BME280;64046;51.978;5.934;2023-05-10T08:36:16;100927.69;;;19.65;100.00
75359;BME280;64046;51.978;5.934;2023-05-10T08:38:59;100937.69;;;19.84;100.00
75359;BME280;64046;51.978;5.934;2023-05-10T08:41:35;100941.56;;;19.80;100.00
75359;BME280;64046;51.978;5.934;2023-05-10T08:44:11;100940.97;;;19.65;100.00
75359;BME280;64046;51.978;5.934;2023-05-10T08:46:46;100946.19;;;19.55;100.00
75359;BME280;64046;51.978;5.934;2023-05-10T08:49:21;100951.38;;;19.45;100.00
75359;BME280;64046;51.978;5.934;2023-05-10T08:51:59;100955.03;;;19.33;100.00
75359;BME280;64046;51.978;5.934;2023-05-10T08:54:34;100959.47;;;19.21;100.00
75359;BME280;64046;51.978;5.934;2023-05-10T08:57:05;100967.09;;;19.03;100.00
75359;BME280;64046;51.978;5.934;2023-05-10T08:59:39;100977.97;;;19.00;100.00
75359;BME280;64046;51.978;5.934;2023-05-10T09:02:34;100978.31;;;19.18;100.00
75359;BME280;64046;51.978;5.934;2023-05-10T09:05:20;100980.50;;;19.47;100.00
75359;BME280;64046;51.978;5.934;2023-05-10T09:07:57;100983.28;;;19.34;100.00
75359;BME280;64046;51.978;5.934;2023-05-10T09:10:33;100988.94;;;19.63;100.00
75359;BME280;64046;51.978;5.934;2023-05-10T09:13:04;100983.00;;;19.60;100.00
75359;BME280;64046;51.978;5.934;2023-05-10T09:15:36;100986.16;;;19.65;100.00
75359;BME280;64046;51.978;5.934;2023-05-10T09:18:05;100985.19;;;19.77;99.28
75359;BME280;64046;51.978;5.934;2023-05-10T09:20:37;100980.09;;;19.97;96.84
75359;BME280;64046;51.978;5.934;2023-05-10T09:23:09;100990.28;;;19.92;96.20
75359;BME280;64046;51.978;5.934;2023-05-10T09:25:46;100996.84;;;20.09;96.47
75359;BME280;64046;51.978;5.934;2023-05-10T09:28:29;101003.34;;;20.16;95.33
75359;BME280;64046;51.978;5.934;2023-05-10T09:31:17;101003.25;;;20.17;93.61
75359;BME280;64046;51.978;5.934;2023-05-10T09:33:53;101011.03;;;19.98;92.64
75359;BME280;64046;51.978;5.934;2023-05-10T09:36:53;101017.53;;;20.16;90.21
75359;BME280;64046;51.978;5.934;2023-05-10T09:39:34;101022.22;;;20.13;89.76
75359;BME280;64046;51.978;5.934;2023-05-10T09:42:08;101019.38;;;20.04;88.96
75359;BME280;64046;51.978;5.934;2023-05-10T09:44:48;101026.22;;;20.07;88.58
75359;BME280;64046;51.978;5.934;2023-05-10T09:47:20;101028.78;;;20.09;88.63
75359;BME280;64046;51.978;5.934;2023-05-10T09:49:50;101028.09;;;19.95;87.78
75359;BME280;64046;51.978;5.934;2023-05-10T09:52:22;101033.16;;;19.98;87.06
75359;BME280;64046;51.978;5.934;2023-05-10T09:54:53;101032.19;;;19.99;86.36
75359;BME280;64046;51.978;5.934;2023-05-10T09:57:28;101031.72;;;19.94;84.95
75359;BME280;64046;51.978;5.934;2023-05-10T10:00:07;101033.03;;;19.88;85.29
75359;BME280;64046;51.978;5.934;2023-05-10T10:02:43;101037.63;;;19.75;85.52
75359;BME280;64046;51.978;5.934;2023-05-10T10:05:30;101039.22;;;20.00;84.05
75359;BME280;64046;51.978;5.934;2023-05-10T10:08:05;101035.94;;;19.97;84.88
75359;BME280;64046;51.978;5.934;2023-05-10T10:10:39;101037.41;;;19.90;83.90
75359;BME280;64046;51.978;5.934;2023-05-10T10:13:13;101042.13;;;19.97;84.49
75359;BME280;64046;51.978;5.934;2023-05-10T10:15:55;101045.50;;;19.88;84.39
75359;BME280;64046;51.978;5.934;2023-05-10T10:18:27;101047.91;;;19.91;83.94
75359;BME280;64046;51.978;5.934;2023-05-10T10:21:01;101047.47;;;19.86;83.89
75359;BME280;64046;51.978;5.934;2023-05-10T10:23:32;101046.00;;;19.82;83.95
75359;BME280;64046;51.978;5.934;2023-05-10T10:26:15;101048.78;;;19.92;82.71
75359;BME280;64046;51.978;5.934;2023-05-10T10:28:57;101041.88;;;19.78;83.28
75359;BME280;64046;51.978;5.934;2023-05-10T10:31:36;101048.63;;;19.70;84.10
75359;BME280;64046;51.978;5.934;2023-05-10T10:34:24;101053.34;;;19.78;84.13
75359;BME280;64046;51.978;5.934;2023-05-10T10:36:55;101048.16;;;19.65;85.31
75359;BME280;64046;51.978;5.934;2023-05-10T10:39:31;101047.06;;;19.57;86.38
75359;BME280;64046;51.978;5.934;2023-05-10T10:42:10;101052.75;;;19.75;85.29
75359;BME280;64046;51.978;5.934;2023-05-10T10:45:12;101044.03;;;19.95;84.41
75359;BME280;64046;51.978;5.934;2023-05-10T10:50:51;101049.69;;;20.13;83.19
75359;BME280;64046;51.978;5.934;2023-05-10T10:53:31;101051.63;;;20.11;83.75
75359;BME280;64046;51.978;5.934;2023-05-10T10:56:10;101042.16;;;20.18;82.92
75359;BME280;64046;51.978;5.934;2023-05-10T10:58:59;101051.16;;;20.17;83.32
75359;BME280;64046;51.978;5.934;2023-05-10T11:01:44;101053.97;;;20.37;82.62
75359;BME280;64046;51.978;5.934;2023-05-10T11:04:18;101059.91;;;20.40;83.04
75359;BME280;64046;51.978;5.934;2023-05-10T11:07:18;101056.34;;;20.51;80.97
75359;BME280;64046;51.978;5.934;2023-05-10T11:09:49;101050.75;;;20.22;83.69
75359;BME280;64046;51.978;5.934;2023-05-10T11:12:23;101056.19;;;20.32;83.89
75359;BME280;64046;51.978;5.934;2023-05-10T11:14:57;101054.53;;;20.52;82.69
75359;BME280;64046;51.978;5.934;2023-05-10T11:17:39;101055.00;;;20.57;81.25
75359;BME280;64046;51.978;5.934;2023-05-10T11:20:38;101057.66;;;20.57;80.94
75359;BME280;64046;51.978;5.934;2023-05-10T11:23:17;101055.03;;;20.46;82.15
75359;BME280;64046;51.978;5.934;2023-05-10T11:25:48;101056.28;;;20.63;81.49
75359;BME280;64046;51.978;5.934;2023-05-10T11:28:20;101067.81;;;20.63;80.79
75359;BME280;64046;51.978;5.934;2023-05-10T11:30:52;101063.44;;;20.73;79.34
75359;BME280;64046;51.978;5.934;2023-05-10T11:33:31;101060.00;;;20.83;79.04
75359;BME280;64046;51.978;5.934;2023-05-10T11:36:51;101053.84;;;21.03;78.09
75359;BME280;64046;51.978;5.934;2023-05-10T11:39:21;101060.13;;;20.81;78.77
75359;BME280;64046;51.978;5.934;2023-05-10T11:41:54;101057.00;;;20.97;78.54
75359;BME280;64046;51.978;5.934;2023-05-10T11:44:29;101057.81;;;21.09;78.28
75359;BME280;64046;51.978;5.934;2023-05-10T11:47:00;101055.50;;;21.04;78.49
75359;BME280;64046;51.978;5.934;2023-05-10T11:49:35;101054.66;;;21.25;78.06
75359;BME280;64046;51.978;5.934;2023-05-10T11:52:07;101052.88;;;21.35;77.66
75359;BME280;64046;51.978;5.934;2023-05-10T11:55:00;101050.59;;;21.52;74.23
75359;BME280;64046;51.978;5.934;2023-05-10T11:57:32;101054.53;;;21.26;75.27
75359;BME280;64046;51.978;5.934;2023-05-10T12:00:08;101058.53;;;21.42;73.82
75359;BME280;64046;51.978;5.934;2023-05-10T12:02:46;101057.94;;;21.38;73.49
75359;BME280;64046;51.978;5.934;2023-05-10T12:05:23;101067.31;;;21.33;73.64
75359;BME280;64046;51.978;5.934;2023-05-10T12:08:12;101072.50;;;21.34;74.23
75359;BME280;64046;51.978;5.934;2023-05-10T12:10:42;101063.16;;;21.19;74.78
75359;BME280;64046;51.978;5.934;2023-05-10T12:13:37;101064.03;;;21.50;73.24
75359;BME280;64046;51.978;5.934;2023-05-10T12:16:22;101056.16;;;21.49;73.08
75359;BME280;64046;51.978;5.934;2023-05-10T12:18:55;101066.91;;;21.37;73.63
75359;BME280;64046;51.978;5.934;2023-05-10T12:21:30;101068.88;;;21.56;72.80
75359;BME280;64046;51.978;5.934;2023-05-10T12:24:02;101062.69;;;21.56;73.10
75359;BME280;64046;51.978;5.934;2023-05-10T12:26:36;101068.75;;;21.68;72.70
75359;BME280;64046;51.978;5.934;2023-05-10T12:29:13;101070.22;;;21.82;71.89
75359;BME280;64046;51.978;5.934;2023-05-10T12:31:51;101067.03;;;21.98;71.22
75359;BME280;64046;51.978;5.934;2023-05-10T12:34:31;101071.00;;;22.13;70.48
75359;BME280;64046;51.978;5.934;2023-05-10T12:37:14;101073.41;;;22.16;70.00
75359;BME280;64046;51.978;5.934;2023-05-10T12:40:02;101071.19;;;22.21;69.44
75359;BME280;64046;51.978;5.934;2023-05-10T12:42:38;101068.66;;;22.20;69.59
75359;BME280;64046;51.978;5.934;2023-05-10T12:45:08;101066.09;;;22.08;69.76
75359;BME280;64046;51.978;5.934;2023-05-10T12:47:57;101073.00;;;22.30;68.91
75359;BME280;64046;51.978;5.934;2023-05-10T12:50:30;101083.09;;;22.07;68.96
75359;BME280;64046;51.978;5.934;2023-05-10T12:53:03;101074.41;;;22.25;69.37
75359;BME280;64046;51.978;5.934;2023-05-10T12:55:37;101083.81;;;22.29;68.77
75359;BME280;64046;51.978;5.934;2023-05-10T12:58:07;101083.81;;;22.19;69.00
75359;BME280;64046;51.978;5.934;2023-05-10T13:00:39;101079.34;;;22.29;67.21
75359;BME280;64046;51.978;5.934;2023-05-10T13:03:10;101087.22;;;22.31;66.74
75359;BME280;64046;51.978;5.934;2023-05-10T13:05:48;101082.75;;;22.41;66.04
75359;BME280;64046;51.978;5.934;2023-05-10T13:08:29;101082.06;;;22.49;65.94
75359;BME280;64046;51.978;5.934;2023-05-10T13:11:11;101087.69;;;22.56;65.17
75359;BME280;64046;51.978;5.934;2023-05-10T13:13:50;101090.66;;;22.62;65.69
75359;BME280;64046;51.978;5.934;2023-05-10T13:16:26;101095.69;;;22.46;65.82
75359;BME280;64046;51.978;5.934;2023-05-10T13:18:59;101096.41;;;22.38;65.16
75359;BME280;64046;51.978;5.934;2023-05-10T13:21:31;101090.66;;;22.53;66.18
75359;BME280;64046;51.978;5.934;2023-05-10T13:24:16;101087.69;;;22.66;65.84
75359;BME280;64046;51.978;5.934;2023-05-10T13:26:51;101093.06;;;22.75;66.15
75359;BME280;64046;51.978;5.934;2023-05-10T13:29:23;101100.63;;;22.60;66.61
75359;BME280;64046;51.978;5.934;2023-05-10T13:31:55;101096.13;;;22.61;66.00
75359;BME280;64046;51.978;5.934;2023-05-10T13:34:28;101103.16;;;22.72;65.69
75359;BME280;64046;51.978;5.934;2023-05-10T13:36:59;101100.91;;;22.57;65.44
75359;BME280;64046;51.978;5.934;2023-05-10T13:40:01;101098.38;;;22.75;65.53
75359;BME280;64046;51.978;5.934;2023-05-10T13:42:53;101094.44;;;22.70;65.59
75359;BME280;64046;51.978;5.934;2023-05-10T13:45:31;101101.88;;;22.56;66.44
75359;BME280;64046;51.978;5.934;2023-05-10T13:48:04;101092.88;;;22.38;66.11
75359;BME280;64046;51.978;5.934;2023-05-10T13:50:45;101094.69;;;22.37;66.10
75359;BME280;64046;51.978;5.934;2023-05-10T13:53:19;101102.94;;;22.24;66.31
75359;BME280;64046;51.978;5.934;2023-05-10T13:55:52;101100.88;;;22.38;66.98
75359;BME280;64046;51.978;5.934;2023-05-10T13:58:43;101107.34;;;22.45;68.33
75359;BME280;64046;51.978;5.934;2023-05-10T14:01:12;101101.75;;;22.07;69.60
75359;BME280;64046;51.978;5.934;2023-05-10T14:04:03;101102.41;;;21.90;70.59